West Fork, Arkansas
Current Conditions -  °F | °C
As of 7:53 AM on Monday 22 Dec 2014 (Local Time) from KFYV Reporting Station
Overcast Overcast  
Wind Chill: 44°   Ceiling: 1300
Heat Index: 48°   Visibility: 10mi
Dew Point: 45°   Wind: 8mph
Humidity: 89%   Direction: 150°SSE
Pressure: 29.62"   Gusts: NA
Location:  35.92°N, 94.19°W
Report Text: KFYV 221353Z 15007KT 10SM OVC013 09/07 A2962 RMK AO2 RAB1256E21 SLP031 P0000 T00890072
Loading
Personal Weather Stations






























Interactive Weather Map New forecast layout! Learn more

10-Day Weather Forecast

Advertisements
Track Severe Weather on mobile